sensor_id;sensor_type;location;lat;lon;timestamp;P1;durP1;ratioP1;P2;durP2;ratioP2
17595;SDS011;8916;47.086;15.920;2023-04-10T00:01:15;27.75;;;16.25;;
17595;SDS011;8916;47.086;15.920;2023-04-10T00:03:45;29.73;;;15.60;;
17595;SDS011;8916;47.086;15.920;2023-04-10T00:06:14;27.63;;;17.10;;
17595;SDS011;8916;47.086;15.920;2023-04-10T00:08:43;30.08;;;18.25;;
17595;SDS011;8916;47.086;15.920;2023-04-10T00:11:12;28.98;;;16.60;;
17595;SDS011;8916;47.086;15.920;2023-04-10T00:13:42;25.90;;;16.13;;
17595;SDS011;8916;47.086;15.920;2023-04-10T00:16:11;24.83;;;15.13;;
17595;SDS011;8916;47.086;15.920;2023-04-10T00:18:42;30.27;;;17.38;;
17595;SDS011;8916;47.086;15.920;2023-04-10T00:21:11;26.02;;;15.93;;
17595;SDS011;8916;47.086;15.920;2023-04-10T00:23:40;23.90;;;14.20;;
17595;SDS011;8916;47.086;15.920;2023-04-10T00:26:08;27.80;;;15.52;;
17595;SDS011;8916;47.086;15.920;2023-04-10T00:28:39;23.95;;;14.18;;
17595;SDS011;8916;47.086;15.920;2023-04-10T00:31:08;27.50;;;15.85;;
17595;SDS011;8916;47.086;15.920;2023-04-10T00:33:36;26.25;;;15.70;;
17595;SDS011;8916;47.086;15.920;2023-04-10T00:36:07;26.20;;;15.90;;
17595;SDS011;8916;47.086;15.920;2023-04-10T00:38:37;26.35;;;15.73;;
17595;SDS011;8916;47.086;15.920;2023-04-10T00:41:06;27.10;;;15.77;;
17595;SDS011;8916;47.086;15.920;2023-04-10T00:43:35;25.83;;;15.00;;
17595;SDS011;8916;47.086;15.920;2023-04-10T00:46:04;23.20;;;14.65;;
17595;SDS011;8916;47.086;15.920;2023-04-10T00:48:33;25.80;;;16.10;;
17595;SDS011;8916;47.086;15.920;2023-04-10T00:51:03;27.17;;;15.63;;
17595;SDS011;8916;47.086;15.920;2023-04-10T00:53:34;24.30;;;14.77;;
17595;SDS011;8916;47.086;15.920;2023-04-10T00:56:04;26.70;;;16.08;;
17595;SDS011;8916;47.086;15.920;2023-04-10T00:58:35;28.27;;;16.58;;
17595;SDS011;8916;47.086;15.920;2023-04-10T01:01:05;34.85;;;18.67;;
17595;SDS011;8916;47.086;15.920;2023-04-10T01:03:34;32.40;;;19.35;;
17595;SDS011;8916;47.086;15.920;2023-04-10T01:06:07;34.72;;;19.95;;
17595;SDS011;8916;47.086;15.920;2023-04-10T01:08:49;40.65;;;20.40;;
17595;SDS011;8916;47.086;15.920;2023-04-10T01:11:29;35.55;;;19.95;;
17595;SDS011;8916;47.086;15.920;2023-04-10T01:14:15;32.20;;;18.27;;
17595;SDS011;8916;47.086;15.920;2023-04-10T01:16:55;36.72;;;21.40;;
17595;SDS011;8916;47.086;15.920;2023-04-10T01:19:36;35.90;;;20.13;;
17595;SDS011;8916;47.086;15.920;2023-04-10T01:22:27;31.50;;;17.15;;
17595;SDS011;8916;47.086;15.920;2023-04-10T01:25:09;30.60;;;18.33;;
17595;SDS011;8916;47.086;15.920;2023-04-10T01:28:02;35.85;;;20.05;;
17595;SDS011;8916;47.086;15.920;2023-04-10T01:30:46;38.70;;;21.45;;
17595;SDS011;8916;47.086;15.920;2023-04-10T01:33:19;40.70;;;22.50;;
17595;SDS011;8916;47.086;15.920;2023-04-10T01:35:54;41.15;;;22.50;;
17595;SDS011;8916;47.086;15.920;2023-04-10T01:38:26;38.80;;;21.67;;
17595;SDS011;8916;47.086;15.920;2023-04-10T01:40:58;32.38;;;19.58;;
17595;SDS011;8916;47.086;15.920;2023-04-10T01:43:29;44.47;;;22.30;;
17595;SDS011;8916;47.086;15.920;2023-04-10T01:46:03;34.25;;;20.10;;
17595;SDS011;8916;47.086;15.920;2023-04-10T01:48:34;38.78;;;20.42;;
17595;SDS011;8916;47.086;15.920;2023-04-10T01:51:03;36.13;;;20.08;;
17595;SDS011;8916;47.086;15.920;2023-04-10T01:53:36;42.10;;;23.63;;
17595;SDS011;8916;47.086;15.920;2023-04-10T01:56:07;36.33;;;19.92;;
17595;SDS011;8916;47.086;15.920;2023-04-10T01:58:43;38.85;;;21.30;;
17595;SDS011;8916;47.086;15.920;2023-04-10T02:01:18;35.17;;;20.17;;
17595;SDS011;8916;47.086;15.920;2023-04-10T02:03:57;35.17;;;19.33;;
17595;SDS011;8916;47.086;15.920;2023-04-10T02:06:28;37.50;;;19.33;;
17595;SDS011;8916;47.086;15.920;2023-04-10T02:09:09;55.47;;;21.00;;
17595;SDS011;8916;47.086;15.920;2023-04-10T02:11:46;41.17;;;20.10;;
17595;SDS011;8916;47.086;15.920;2023-04-10T02:14:21;66.28;;;21.55;;
17595;SDS011;8916;47.086;15.920;2023-04-10T02:16:56;52.58;;;21.08;;
17595;SDS011;8916;47.086;15.920;2023-04-10T02:19:29;36.45;;;18.45;;
17595;SDS011;8916;47.086;15.920;2023-04-10T02:22:00;77.40;;;20.73;;
17595;SDS011;8916;47.086;15.920;2023-04-10T02:24:32;91.72;;;22.63;;
17595;SDS011;8916;47.086;15.920;2023-04-10T02:27:03;35.03;;;17.98;;
17595;SDS011;8916;47.086;15.920;2023-04-10T02:29:32;70.55;;;19.92;;
17595;SDS011;8916;47.086;15.920;2023-04-10T02:32:03;45.85;;;17.58;;
17595;SDS011;8916;47.086;15.920;2023-04-10T02:34:34;39.50;;;17.60;;
17595;SDS011;8916;47.086;15.920;2023-04-10T02:37:04;128.18;;;23.88;;
17595;SDS011;8916;47.086;15.920;2023-04-10T02:39:33;100.35;;;18.75;;
17595;SDS011;8916;47.086;15.920;2023-04-10T02:42:03;72.07;;;17.30;;
17595;SDS011;8916;47.086;15.920;2023-04-10T02:44:33;72.38;;;18.75;;
17595;SDS011;8916;47.086;15.920;2023-04-10T02:47:03;116.35;;;20.77;;
17595;SDS011;8916;47.086;15.920;2023-04-10T02:49:35;58.03;;;18.75;;
17595;SDS011;8916;47.086;15.920;2023-04-10T02:52:11;71.05;;;18.58;;
17595;SDS011;8916;47.086;15.920;2023-04-10T02:54:40;53.05;;;18.35;;
17595;SDS011;8916;47.086;15.920;2023-04-10T02:57:09;36.45;;;16.30;;
17595;SDS011;8916;47.086;15.920;2023-04-10T02:59:38;50.42;;;16.75;;
17595;SDS011;8916;47.086;15.920;2023-04-10T03:02:09;41.72;;;16.10;;
17595;SDS011;8916;47.086;15.920;2023-04-10T03:04:39;61.85;;;16.83;;
17595;SDS011;8916;47.086;15.920;2023-04-10T03:07:09;52.47;;;16.83;;
17595;SDS011;8916;47.086;15.920;2023-04-10T03:09:39;103.05;;;19.65;;
17595;SDS011;8916;47.086;15.920;2023-04-10T03:12:08;97.75;;;19.27;;
17595;SDS011;8916;47.086;15.920;2023-04-10T03:14:37;106.47;;;20.48;;
17595;SDS011;8916;47.086;15.920;2023-04-10T03:17:06;97.63;;;20.48;;
17595;SDS011;8916;47.086;15.920;2023-04-10T03:19:38;41.97;;;18.88;;
17595;SDS011;8916;47.086;15.920;2023-04-10T03:22:07;70.05;;;19.80;;
17595;SDS011;8916;47.086;15.920;2023-04-10T03:24:38;34.03;;;19.83;;
17595;SDS011;8916;47.086;15.920;2023-04-10T03:27:08;70.85;;;22.42;;
17595;SDS011;8916;47.086;15.920;2023-04-10T03:29:37;97.88;;;22.17;;
17595;SDS011;8916;47.086;15.920;2023-04-10T03:32:06;58.65;;;20.95;;
17595;SDS011;8916;47.086;15.920;2023-04-10T03:34:37;53.17;;;20.15;;
17595;SDS011;8916;47.086;15.920;2023-04-10T03:37:06;49.30;;;21.67;;
17595;SDS011;8916;47.086;15.920;2023-04-10T03:39:35;45.28;;;18.67;;
17595;SDS011;8916;47.086;15.920;2023-04-10T03:42:04;56.10;;;20.10;;
17595;SDS011;8916;47.086;15.920;2023-04-10T03:44:33;40.17;;;19.45;;
17595;SDS011;8916;47.086;15.920;2023-04-10T03:47:03;35.28;;;18.45;;
17595;SDS011;8916;47.086;15.920;2023-04-10T03:49:33;29.27;;;17.58;;
17595;SDS011;8916;47.086;15.920;2023-04-10T03:52:05;33.92;;;18.58;;
17595;SDS011;8916;47.086;15.920;2023-04-10T03:54:35;26.00;;;15.25;;
17595;SDS011;8916;47.086;15.920;2023-04-10T03:57:04;30.67;;;18.05;;
17595;SDS011;8916;47.086;15.920;2023-04-10T03:59:34;28.17;;;17.30;;
17595;SDS011;8916;47.086;15.920;2023-04-10T04:02:10;31.60;;;18.50;;
17595;SDS011;8916;47.086;15.920;2023-04-10T04:04:42;31.33;;;18.05;;
17595;SDS011;8916;47.086;15.920;2023-04-10T04:07:20;32.58;;;18.38;;
17595;SDS011;8916;47.086;15.920;2023-04-10T04:10:00;33.08;;;18.23;;
17595;SDS011;8916;47.086;15.920;2023-04-10T04:13:08;34.63;;;18.85;;
17595;SDS011;8916;47.086;15.920;2023-04-10T04:15:48;33.67;;;18.15;;
17595;SDS011;8916;47.086;15.920;2023-04-10T04:18:35;33.22;;;17.70;;
17595;SDS011;8916;47.086;15.920;2023-04-10T04:21:22;33.28;;;18.38;;
17595;SDS011;8916;47.086;15.920;2023-04-10T04:24:21;29.88;;;17.85;;
17595;SDS011;8916;47.086;15.920;2023-04-10T04:27:13;30.45;;;17.55;;
17595;SDS011;8916;47.086;15.920;2023-04-10T04:29:49;28.00;;;17.42;;
17595;SDS011;8916;47.086;15.920;2023-04-10T04:32:24;33.85;;;20.45;;
17595;SDS011;8916;47.086;15.920;2023-04-10T04:35:00;35.00;;;19.40;;
17595;SDS011;8916;47.086;15.920;2023-04-10T04:37:43;40.67;;;20.67;;
17595;SDS011;8916;47.086;15.920;2023-04-10T04:40:21;38.33;;;21.02;;
17595;SDS011;8916;47.086;15.920;2023-04-10T04:43:16;46.42;;;26.80;;
17595;SDS011;8916;47.086;15.920;2023-04-10T04:46:11;35.88;;;19.55;;
17595;SDS011;8916;47.086;15.920;2023-04-10T04:49:09;37.00;;;20.23;;
17595;SDS011;8916;47.086;15.920;2023-04-10T04:51:53;35.92;;;19.98;;
17595;SDS011;8916;47.086;15.920;2023-04-10T04:54:34;38.55;;;20.65;;
17595;SDS011;8916;47.086;15.920;2023-04-10T04:57:32;27.10;;;17.42;;
17595;SDS011;8916;47.086;15.920;2023-04-10T05:00:19;34.65;;;19.23;;
17595;SDS011;8916;47.086;15.920;2023-04-10T05:02:48;31.30;;;19.02;;
17595;SDS011;8916;47.086;15.920;2023-04-10T05:05:41;32.28;;;18.55;;
17595;SDS011;8916;47.086;15.920;2023-04-10T05:08:35;37.63;;;19.20;;
17595;SDS011;8916;47.086;15.920;2023-04-10T05:11:11;32.90;;;18.00;;
17595;SDS011;8916;47.086;15.920;2023-04-10T05:14:04;34.47;;;20.50;;
17595;SDS011;8916;47.086;15.920;2023-04-10T05:17:11;29.20;;;18.10;;
17595;SDS011;8916;47.086;15.920;2023-04-10T05:19:44;30.92;;;18.90;;
17595;SDS011;8916;47.086;15.920;2023-04-10T05:22:32;31.80;;;17.95;;
17595;SDS011;8916;47.086;15.920;2023-04-10T05:25:34;36.63;;;20.83;;
17595;SDS011;8916;47.086;15.920;2023-04-10T05:28:14;29.17;;;17.20;;
17595;SDS011;8916;47.086;15.920;2023-04-10T05:31:11;30.35;;;18.08;;
17595;SDS011;8916;47.086;15.920;2023-04-10T05:33:54;30.23;;;17.17;;
17595;SDS011;8916;47.086;15.920;2023-04-10T05:36:45;34.13;;;19.17;;
17595;SDS011;8916;47.086;15.920;2023-04-10T05:39:19;31.60;;;17.40;;
17595;SDS011;8916;47.086;15.920;2023-04-10T05:42:11;28.02;;;17.00;;
17595;SDS011;8916;47.086;15.920;2023-04-10T05:45:05;26.90;;;16.77;;
17595;SDS011;8916;47.086;15.920;2023-04-10T05:47:59;28.25;;;17.48;;
17595;SDS011;8916;47.086;15.920;2023-04-10T05:50:41;26.90;;;16.70;;
17595;SDS011;8916;47.086;15.920;2023-04-10T05:53:16;29.90;;;16.77;;
17595;SDS011;8916;47.086;15.920;2023-04-10T05:56:02;26.67;;;16.63;;
17595;SDS011;8916;47.086;15.920;2023-04-10T05:58:58;27.52;;;15.85;;
17595;SDS011;8916;47.086;15.920;2023-04-10T06:01:56;26.08;;;16.33;;
17595;SDS011;8916;47.086;15.920;2023-04-10T06:04:25;25.05;;;15.63;;
17595;SDS011;8916;47.086;15.920;2023-04-10T06:06:57;27.05;;;16.00;;
17595;SDS011;8916;47.086;15.920;2023-04-10T06:09:27;25.23;;;15.98;;
17595;SDS011;8916;47.086;15.920;2023-04-10T06:11:56;27.85;;;16.13;;
17595;SDS011;8916;47.086;15.920;2023-04-10T06:14:25;25.67;;;15.40;;
17595;SDS011;8916;47.086;15.920;2023-04-10T06:16:59;24.25;;;14.70;;
17595;SDS011;8916;47.086;15.920;2023-04-10T06:19:28;23.63;;;14.95;;
17595;SDS011;8916;47.086;15.920;2023-04-10T06:21:57;23.70;;;14.45;;
17595;SDS011;8916;47.086;15.920;2023-04-10T06:24:26;23.58;;;14.75;;
17595;SDS011;8916;47.086;15.920;2023-04-10T06:26:55;22.23;;;13.75;;
17595;SDS011;8916;47.086;15.920;2023-04-10T06:29:24;23.27;;;13.20;;
17595;SDS011;8916;47.086;15.920;2023-04-10T06:31:54;22.88;;;13.63;;
17595;SDS011;8916;47.086;15.920;2023-04-10T06:34:25;20.45;;;12.73;;
17595;SDS011;8916;47.086;15.920;2023-04-10T06:37:00;22.35;;;13.68;;
17595;SDS011;8916;47.086;15.920;2023-04-10T06:39:30;18.80;;;12.82;;
17595;SDS011;8916;47.086;15.920;2023-04-10T06:41:59;18.90;;;11.88;;
17595;SDS011;8916;47.086;15.920;2023-04-10T06:44:42;22.60;;;13.10;;
17595;SDS011;8916;47.086;15.920;2023-04-10T06:47:11;18.88;;;12.45;;
17595;SDS011;8916;47.086;15.920;2023-04-10T06:49:44;23.02;;;12.70;;
17595;SDS011;8916;47.086;15.920;2023-04-10T06:52:13;19.67;;;12.45;;
17595;SDS011;8916;47.086;15.920;2023-04-10T06:54:42;19.92;;;12.07;;
17595;SDS011;8916;47.086;15.920;2023-04-10T06:57:12;20.15;;;12.90;;
17595;SDS011;8916;47.086;15.920;2023-04-10T06:59:48;19.42;;;12.23;;
17595;SDS011;8916;47.086;15.920;2023-04-10T07:02:17;18.02;;;11.63;;
17595;SDS011;8916;47.086;15.920;2023-04-10T07:04:47;18.27;;;10.73;;
17595;SDS011;8916;47.086;15.920;2023-04-10T07:07:17;16.98;;;10.82;;
17595;SDS011;8916;47.086;15.920;2023-04-10T07:09:47;18.27;;;11.82;;
17595;SDS011;8916;47.086;15.920;2023-04-10T07:12:16;17.83;;;11.40;;
17595;SDS011;8916;47.086;15.920;2023-04-10T07:14:46;16.48;;;10.82;;
17595;SDS011;8916;47.086;15.920;2023-04-10T07:17:15;19.08;;;10.90;;
17595;SDS011;8916;47.086;15.920;2023-04-10T07:19:44;19.95;;;11.23;;
17595;SDS011;8916;47.086;15.920;2023-04-10T07:22:14;18.35;;;11.65;;
17595;SDS011;8916;47.086;15.920;2023-04-10T07:24:43;15.73;;;10.70;;
17595;SDS011;8916;47.086;15.920;2023-04-10T07:27:12;19.40;;;11.00;;
17595;SDS011;8916;47.086;15.920;2023-04-10T07:29:43;16.52;;;10.43;;
17595;SDS011;8916;47.086;15.920;2023-04-10T07:32:12;15.80;;;10.48;;
17595;SDS011;8916;47.086;15.920;2023-04-10T07:34:41;15.52;;;9.90;;
17595;SDS011;8916;47.086;15.920;2023-04-10T07:37:10;17.38;;;11.18;;
17595;SDS011;8916;47.086;15.920;2023-04-10T07:39:41;16.17;;;11.07;;
17595;SDS011;8916;47.086;15.920;2023-04-10T07:42:10;17.70;;;10.60;;
17595;SDS011;8916;47.086;15.920;2023-04-10T07:44:39;15.60;;;10.65;;
17595;SDS011;8916;47.086;15.920;2023-04-10T07:47:08;18.83;;;11.10;;
17595;SDS011;8916;47.086;15.920;2023-04-10T07:49:37;17.17;;;10.48;;
17595;SDS011;8916;47.086;15.920;2023-04-10T07:52:07;15.23;;;10.05;;
17595;SDS011;8916;47.086;15.920;2023-04-10T07:54:36;15.52;;;10.15;;
17595;SDS011;8916;47.086;15.920;2023-04-10T07:57:07;15.57;;;9.20;;
17595;SDS011;8916;47.086;15.920;2023-04-10T07:59:36;16.52;;;9.35;;
17595;SDS011;8916;47.086;15.920;2023-04-10T08:02:05;17.15;;;9.85;;
17595;SDS011;8916;47.086;15.920;2023-04-10T08:04:34;14.90;;;10.50;;
17595;SDS011;8916;47.086;15.920;2023-04-10T08:07:03;18.27;;;11.05;;
17595;SDS011;8916;47.086;15.920;2023-04-10T08:09:33;18.40;;;11.02;;
17595;SDS011;8916;47.086;15.920;2023-04-10T08:12:02;15.15;;;9.75;;
17595;SDS011;8916;47.086;15.920;2023-04-10T08:14:33;16.02;;;10.63;;
17595;SDS011;8916;47.086;15.920;2023-04-10T08:17:02;19.15;;;12.88;;
17595;SDS011;8916;47.086;15.920;2023-04-10T08:19:31;23.48;;;15.63;;
17595;SDS011;8916;47.086;15.920;2023-04-10T08:22:02;21.08;;;14.05;;
17595;SDS011;8916;47.086;15.920;2023-04-10T08:24:31;24.95;;;14.68;;
17595;SDS011;8916;47.086;15.920;2023-04-10T08:27:00;22.70;;;14.85;;
17595;SDS011;8916;47.086;15.920;2023-04-10T08:29:29;22.65;;;14.70;;
17595;SDS011;8916;47.086;15.920;2023-04-10T08:32:00;22.02;;;13.70;;
17595;SDS011;8916;47.086;15.920;2023-04-10T08:34:30;20.90;;;14.73;;
17595;SDS011;8916;47.086;15.920;2023-04-10T08:36:59;23.23;;;15.52;;
17595;SDS011;8916;47.086;15.920;2023-04-10T08:39:33;27.35;;;16.92;;
17595;SDS011;8916;47.086;15.920;2023-04-10T08:42:03;22.48;;;14.65;;
17595;SDS011;8916;47.086;15.920;2023-04-10T08:44:34;24.05;;;16.42;;
17595;SDS011;8916;47.086;15.920;2023-04-10T08:47:05;23.80;;;16.15;;
17595;SDS011;8916;47.086;15.920;2023-04-10T08:49:38;23.45;;;16.52;;
17595;SDS011;8916;47.086;15.920;2023-04-10T08:54:47;24.88;;;16.02;;
17595;SDS011;8916;47.086;15.920;2023-04-10T08:57:18;23.77;;;16.17;;
17595;SDS011;8916;47.086;15.920;2023-04-10T08:59:49;26.15;;;16.95;;
17595;SDS011;8916;47.086;15.920;2023-04-10T09:02:20;26.35;;;17.20;;
17595;SDS011;8916;47.086;15.920;2023-04-10T09:04:50;23.48;;;16.38;;
17595;SDS011;8916;47.086;15.920;2023-04-10T09:07:23;24.65;;;17.00;;
17595;SDS011;8916;47.086;15.920;2023-04-10T09:09:55;24.90;;;16.48;;
17595;SDS011;8916;47.086;15.920;2023-04-10T09:12:24;22.00;;;15.95;;
17595;SDS011;8916;47.086;15.920;2023-04-10T09:14:53;24.95;;;16.80;;
17595;SDS011;8916;47.086;15.920;2023-04-10T09:17:25;23.17;;;16.33;;
17595;SDS011;8916;47.086;15.920;2023-04-10T09:19:55;22.30;;;15.27;;
17595;SDS011;8916;47.086;15.920;2023-04-10T09:22:30;21.92;;;14.48;;
17595;SDS011;8916;47.086;15.920;2023-04-10T09:25:02;19.95;;;14.35;;
17595;SDS011;8916;47.086;15.920;2023-04-10T09:27:38;21.70;;;15.57;;
17595;SDS011;8916;47.086;15.920;2023-04-10T09:30:08;25.27;;;16.20;;
17595;SDS011;8916;47.086;15.920;2023-04-10T09:32:40;24.80;;;16.50;;
17595;SDS011;8916;47.086;15.920;2023-04-10T09:35:12;20.58;;;15.70;;
17595;SDS011;8916;47.086;15.920;2023-04-10T09:37:43;25.40;;;19.00;;
17595;SDS011;8916;47.086;15.920;2023-04-10T09:40:21;25.00;;;17.52;;
17595;SDS011;8916;47.086;15.920;2023-04-10T09:45:22;22.85;;;15.65;;
17595;SDS011;8916;47.086;15.920;2023-04-10T09:48:03;19.38;;;14.20;;
17595;SDS011;8916;47.086;15.920;2023-04-10T09:50:34;21.67;;;14.57;;
17595;SDS011;8916;47.086;15.920;2023-04-10T09:53:07;20.73;;;15.02;;
17595;SDS011;8916;47.086;15.920;2023-04-10T09:55:36;19.20;;;13.40;;
17595;SDS011;8916;47.086;15.920;2023-04-10T09:58:06;20.10;;;14.35;;
17595;SDS011;8916;47.086;15.920;2023-04-10T10:00:38;19.13;;;13.52;;
17595;SDS011;8916;47.086;15.920;2023-04-10T10:03:10;18.17;;;12.00;;
17595;SDS011;8916;47.086;15.920;2023-04-10T10:05:44;18.15;;;12.52;;
17595;SDS011;8916;47.086;15.920;2023-04-10T10:08:17;18.35;;;13.30;;
17595;SDS011;8916;47.086;15.920;2023-04-10T10:10:49;22.30;;;14.98;;
17595;SDS011;8916;47.086;15.920;2023-04-10T10:13:22;20.13;;;14.02;;
17595;SDS011;8916;47.086;15.920;2023-04-10T10:16:00;16.70;;;11.63;;
17595;SDS011;8916;47.086;15.920;2023-04-10T10:18:40;16.58;;;11.65;;
17595;SDS011;8916;47.086;15.920;2023-04-10T10:21:14;17.17;;;12.77;;
17595;SDS011;8916;47.086;15.920;2023-04-10T10:23:46;20.38;;;13.65;;
17595;SDS011;8916;47.086;15.920;2023-04-10T10:26:20;15.18;;;11.32;;
17595;SDS011;8916;47.086;15.920;2023-04-10T10:28:50;16.10;;;11.95;;
17595;SDS011;8916;47.086;15.920;2023-04-10T10:31:20;17.83;;;13.35;;
17595;SDS011;8916;47.086;15.920;2023-04-10T10:33:51;17.17;;;12.65;;
17595;SDS011;8916;47.086;15.920;2023-04-10T10:36:23;16.58;;;12.45;;
17595;SDS011;8916;47.086;15.920;2023-04-10T10:38:55;20.48;;;14.75;;
17595;SDS011;8916;47.086;15.920;2023-04-10T10:41:42;23.33;;;16.02;;
17595;SDS011;8916;47.086;15.920;2023-04-10T10:44:19;18.55;;;13.85;;
17595;SDS011;8916;47.086;15.920;2023-04-10T10:46:58;21.25;;;15.07;;
17595;SDS011;8916;47.086;15.920;2023-04-10T10:49:55;19.52;;;14.18;;
17595;SDS011;8916;47.086;15.920;2023-04-10T10:52:42;19.45;;;13.27;;
17595;SDS011;8916;47.086;15.920;2023-04-10T10:55:28;18.85;;;13.32;;
17595;SDS011;8916;47.086;15.920;2023-04-10T10:58:05;17.20;;;12.20;;
17595;SDS011;8916;47.086;15.920;2023-04-10T11:03:42;16.73;;;13.13;;
17595;SDS011;8916;47.086;15.920;2023-04-10T11:06:15;16.42;;;11.63;;
17595;SDS011;8916;47.086;15.920;2023-04-10T11:08:46;16.77;;;12.38;;
17595;SDS011;8916;47.086;15.920;2023-04-10T11:11:20;15.82;;;12.38;;
17595;SDS011;8916;47.086;15.920;2023-04-10T11:16:47;14.40;;;10.98;;
17595;SDS011;8916;47.086;15.920;2023-04-10T11:19:16;15.23;;;11.63;;
17595;SDS011;8916;47.086;15.920;2023-04-10T11:22:04;16.85;;;11.02;;
17595;SDS011;8916;47.086;15.920;2023-04-10T11:24:50;17.15;;;11.80;;
17595;SDS011;8916;47.086;15.920;2023-04-10T11:27:39;16.92;;;11.82;;
17595;SDS011;8916;47.086;15.920;2023-04-10T11:30:37;17.10;;;11.77;;
17595;SDS011;8916;47.086;15.920;2023-04-10T11:33:07;16.17;;;12.02;;
17595;SDS011;8916;47.086;15.920;2023-04-10T11:35:36;13.52;;;10.65;;
17595;SDS011;8916;47.086;15.920;2023-04-10T11:38:08;14.90;;;10.98;;
17595;SDS011;8916;47.086;15.920;2023-04-10T11:40:52;13.00;;;10.18;;
17595;SDS011;8916;47.086;15.920;2023-04-10T11:43:31;14.27;;;10.77;;
17595;SDS011;8916;47.086;15.920;2023-04-10T11:46:02;12.70;;;10.18;;
17595;SDS011;8916;47.086;15.920;2023-04-10T11:48:35;13.00;;;9.98;;
17595;SDS011;8916;47.086;15.920;2023-04-10T11:51:08;13.45;;;10.48;;
17595;SDS011;8916;47.086;15.920;2023-04-10T11:53:40;10.07;;;8.55;;
17595;SDS011;8916;47.086;15.920;2023-04-10T11:56:16;11.25;;;9.45;;
17595;SDS011;8916;47.086;15.920;2023-04-10T11:58:51;12.88;;;9.82;;
17595;SDS011;8916;47.086;15.920;2023-04-10T12:01:21;12.68;;;11.20;;
17595;SDS011;8916;47.086;15.920;2023-04-10T12:03:51;13.60;;;9.63;;
17595;SDS011;8916;47.086;15.920;2023-04-10T12:06:20;13.23;;;10.05;;
17595;SDS011;8916;47.086;15.920;2023-04-10T12:08:51;13.20;;;9.65;;
17595;SDS011;8916;47.086;15.920;2023-04-10T12:11:21;12.30;;;9.38;;
17595;SDS011;8916;47.086;15.920;2023-04-10T12:13:52;11.65;;;9.63;;
17595;SDS011;8916;47.086;15.920;2023-04-10T12:16:23;12.35;;;9.48;;
17595;SDS011;8916;47.086;15.920;2023-04-10T12:18:53;11.55;;;9.45;;
17595;SDS011;8916;47.086;15.920;2023-04-10T12:21:23;10.77;;;8.38;;
17595;SDS011;8916;47.086;15.920;2023-04-10T12:23:54;12.88;;;9.15;;
17595;SDS011;8916;47.086;15.920;2023-04-10T12:26:24;10.43;;;8.52;;
17595;SDS011;8916;47.086;15.920;2023-04-10T12:28:53;12.45;;;9.13;;
17595;SDS011;8916;47.086;15.920;2023-04-10T12:31:27;11.30;;;9.05;;
17595;SDS011;8916;47.086;15.920;2023-04-10T12:33:58;10.60;;;8.63;;
17595;SDS011;8916;47.086;15.920;2023-04-10T12:36:29;9.43;;;7.55;;
17595;SDS011;8916;47.086;15.920;2023-04-10T12:39:02;9.00;;;7.43;;
17595;SDS011;8916;47.086;15.920;2023-04-10T12:41:32;9.82;;;7.50;;
17595;SDS011;8916;47.086;15.920;2023-04-10T12:44:06;8.52;;;7.50;;
17595;SDS011;8916;47.086;15.920;2023-04-10T12:46:38;9.55;;;7.35;;
17595;SDS011;8916;47.086;15.920;2023-04-10T12:49:08;8.48;;;7.45;;
17595;SDS011;8916;47.086;15.920;2023-04-10T12:51:42;9.23;;;7.60;;
17595;SDS011;8916;47.086;15.920;2023-04-10T12:54:27;11.25;;;8.18;;
17595;SDS011;8916;47.086;15.920;2023-04-10T12:56:59;11.63;;;8.02;;
17595;SDS011;8916;47.086;15.920;2023-04-10T12:59:30;11.13;;;8.32;;
17595;SDS011;8916;47.086;15.920;2023-04-10T13:02:00;12.57;;;7.80;;
17595;SDS011;8916;47.086;15.920;2023-04-10T13:04:29;12.60;;;7.65;;
17595;SDS011;8916;47.086;15.920;2023-04-10T13:06:59;12.10;;;9.05;;
17595;SDS011;8916;47.086;15.920;2023-04-10T13:09:30;12.85;;;8.82;;
17595;SDS011;8916;47.086;15.920;2023-04-10T13:11:59;11.77;;;8.70;;
17595;SDS011;8916;47.086;15.920;2023-04-10T13:14:30;11.75;;;8.43;;
17595;SDS011;8916;47.086;15.920;2023-04-10T13:16:59;8.65;;;7.43;;
17595;SDS011;8916;47.086;15.920;2023-04-10T13:19:28;9.57;;;7.90;;
17595;SDS011;8916;47.086;15.920;2023-04-10T13:21:57;8.90;;;7.80;;
17595;SDS011;8916;47.086;15.920;2023-04-10T13:24:27;7.95;;;6.90;;
17595;SDS011;8916;47.086;15.920;2023-04-10T13:26:57;9.63;;;8.23;;
17595;SDS011;8916;47.086;15.920;2023-04-10T13:29:27;9.05;;;7.60;;
17595;SDS011;8916;47.086;15.920;2023-04-10T13:31:56;9.80;;;7.68;;
17595;SDS011;8916;47.086;15.920;2023-04-10T13:34:27;9.68;;;7.65;;
17595;SDS011;8916;47.086;15.920;2023-04-10T13:36:57;8.50;;;6.22;;
17595;SDS011;8916;47.086;15.920;2023-04-10T13:39:27;11.02;;;7.57;;
17595;SDS011;8916;47.086;15.920;2023-04-10T13:41:59;8.93;;;7.18;;
17595;SDS011;8916;47.086;15.920;2023-04-10T13:44:28;8.82;;;7.45;;
17595;SDS011;8916;47.086;15.920;2023-04-10T13:46:58;8.73;;;7.72;;
17595;SDS011;8916;47.086;15.920;2023-04-10T13:49:27;9.30;;;7.60;;
17595;SDS011;8916;47.086;15.920;2023-04-10T13:51:57;9.50;;;7.10;;
17595;SDS011;8916;47.086;15.920;2023-04-10T13:54:26;9.68;;;7.53;;
17595;SDS011;8916;47.086;15.920;2023-04-10T13:56:55;8.45;;;7.07;;
17595;SDS011;8916;47.086;15.920;2023-04-10T13:59:26;10.70;;;7.72;;
17595;SDS011;8916;47.086;15.920;2023-04-10T14:01:56;10.43;;;7.63;;
17595;SDS011;8916;47.086;15.920;2023-04-10T14:04:25;8.23;;;6.70;;
17595;SDS011;8916;47.086;15.920;2023-04-10T14:06:54;7.88;;;6.22;;
17595;SDS011;8916;47.086;15.920;2023-04-10T14:09:26;8.82;;;6.30;;
17595;SDS011;8916;47.086;15.920;2023-04-10T14:11:55;7.38;;;6.32;;
17595;SDS011;8916;47.086;15.920;2023-04-10T14:14:25;8.23;;;6.13;;
17595;SDS011;8916;47.086;15.920;2023-04-10T14:16:55;8.93;;;7.20;;
17595;SDS011;8916;47.086;15.920;2023-04-10T14:19:25;7.88;;;6.40;;
17595;SDS011;8916;47.086;15.920;2023-04-10T14:21:54;9.98;;;6.60;;
17595;SDS011;8916;47.086;15.920;2023-04-10T14:24:23;9.95;;;6.75;;
17595;SDS011;8916;47.086;15.920;2023-04-10T14:26:52;9.23;;;7.10;;
17595;SDS011;8916;47.086;15.920;2023-04-10T14:29:24;7.03;;;6.07;;
17595;SDS011;8916;47.086;15.920;2023-04-10T14:32:05;8.70;;;7.20;;
17595;SDS011;8916;47.086;15.920;2023-04-10T14:34:34;6.97;;;6.20;;
17595;SDS011;8916;47.086;15.920;2023-04-10T14:37:03;7.05;;;6.30;;
17595;SDS011;8916;47.086;15.920;2023-04-10T14:39:33;7.03;;;6.10;;
17595;SDS011;8916;47.086;15.920;2023-04-10T14:42:02;7.93;;;6.38;;
17595;SDS011;8916;47.086;15.920;2023-04-10T14:44:34;7.05;;;5.95;;
17595;SDS011;8916;47.086;15.920;2023-04-10T14:47:03;7.85;;;6.35;;
17595;SDS011;8916;47.086;15.920;2023-04-10T14:49:33;7.38;;;6.60;;
17595;SDS011;8916;47.086;15.920;2023-04-10T14:52:02;7.70;;;6.43;;
17595;SDS011;8916;47.086;15.920;2023-04-10T14:54:31;7.32;;;6.15;;
17595;SDS011;8916;47.086;15.920;2023-04-10T14:57:01;8.10;;;6.50;;
17595;SDS011;8916;47.086;15.920;2023-04-10T14:59:30;6.65;;;5.95;;
17595;SDS011;8916;47.086;15.920;2023-04-10T15:02:00;7.05;;;6.32;;
17595;SDS011;8916;47.086;15.920;2023-04-10T15:04:30;8.20;;;6.30;;
17595;SDS011;8916;47.086;15.920;2023-04-10T15:06:59;6.30;;;5.70;;
17595;SDS011;8916;47.086;15.920;2023-04-10T15:09:28;7.68;;;6.60;;
17595;SDS011;8916;47.086;15.920;2023-04-10T15:11:57;7.68;;;6.07;;
17595;SDS011;8916;47.086;15.920;2023-04-10T15:14:26;6.53;;;5.82;;